Time;durP1;ratioP1;P1;durP2;ratioP2;P2;SDS_P1;SDS_P2;PMS_P1;PMS_P2;Temp;Humidity;BMP_temperature;BMP_pressure;BME280_temperature;BME280_humidity;BME280_pressure;Samples;Min_cycle;Max_cycle;Signal;HPM_P1;HPM_P2
2021/06/22 00:02:38;;;;;;;21.97;6.47;;;;;;;20.16;61.49;98187.53;2135738;83;21013;-64
2021/06/22 00:05:39;;;;;;;25.25;7.87;;;;;;;19.96;61.58;98180.42;2135788;83;21036;-65
2021/06/22 00:08:40;;;;;;;27.73;7.85;;;;;;;19.93;63.10;98174.12;2135755;83;21009;-66
2021/06/22 00:11:42;;;;;;;25.70;7.60;;;;;;;19.88;62.97;98172.78;2135829;83;21069;-66
2021/06/22 00:14:43;;;;;;;25.88;7.53;;;;;;;19.86;62.47;98172.11;2135755;83;21033;-65
2021/06/22 00:17:45;;;;;;;27.32;7.28;;;;;;;19.90;62.50;98168.62;2135949;82;21058;-65
2021/06/22 00:20:46;;;;;;;21.93;7.53;;;;;;;19.57;63.21;98173.95;2135916;83;21089;-64
2021/06/22 00:23:47;;;;;;;34.73;9.63;;;;;;;19.36;63.84;98163.80;2136542;83;21600;-64
2021/06/22 00:26:49;;;;;;;24.12;7.25;;;;;;;19.28;64.33;98166.45;2138735;83;21033;-63
2021/06/22 00:29:51;;;;;;;26.27;7.47;;;;;;;19.09;64.86;98172.91;2139080;83;21018;-64
2021/06/22 00:32:52;;;;;;;29.57;8.68;;;;;;;18.84;65.27;98172.84;2138974;83;21025;-64
2021/06/22 00:35:54;;;;;;;26.02;7.20;;;;;;;18.76;67.31;98166.17;2139094;83;21013;-64
2021/06/22 00:38:55;;;;;;;23.95;7.75;;;;;;;18.85;66.01;98166.55;2139064;83;21489;-65
2021/06/22 00:41:57;;;;;;;26.23;7.78;;;;;;;18.82;65.17;98172.16;2139039;83;21013;-64
2021/06/22 00:44:58;;;;;;;27.40;7.90;;;;;;;18.80;65.05;98165.67;2139076;83;21033;-65
2021/06/22 00:48:00;;;;;;;32.05;9.65;;;;;;;18.86;65.32;98162.87;2139069;83;21048;-65
2021/06/22 00:51:01;;;;;;;25.95;8.08;;;;;;;18.97;66.20;98163.92;2138928;83;21048;-65
2021/06/22 00:54:03;;;;;;;32.08;8.38;;;;;;;19.12;65.03;98160.62;2139035;83;21018;-65
2021/06/22 00:57:04;;;;;;;26.40;8.65;;;;;;;18.98;64.95;98160.28;2139084;83;20994;-65
2021/06/22 01:00:06;;;;;;;32.88;10.32;;;;;;;18.90;65.19;98158.11;2139059;83;21520;-64
2021/06/22 01:03:07;;;;;;;27.73;10.38;;;;;;;18.84;65.89;98150.27;2139006;83;21006;-64
2021/06/22 01:06:09;;;;;;;26.23;10.30;;;;;;;18.82;66.42;98154.41;2139031;82;21304;-64
2021/06/22 01:09:10;;;;;;;25.70;9.70;;;;;;;18.96;66.63;98155.61;2139019;82;21021;-64
2021/06/22 01:12:12;;;;;;;29.40;9.00;;;;;;;19.09;66.58;98152.47;2138757;83;21058;-64
2021/06/22 01:15:14;;;;;;;25.90;8.90;;;;;;;19.17;66.27;98153.82;2139133;83;21045;-66
2021/06/22 01:18:16;;;;;;;29.92;9.53;;;;;;;19.11;66.34;98155.00;2138797;83;21040;-64
2021/06/22 01:21:18;;;;;;;26.40;8.73;;;;;;;19.08;66.36;98155.30;2138976;83;21009;-65
2021/06/22 01:24:19;;;;;;;24.75;8.98;;;;;;;18.95;66.56;98158.44;2137814;83;21065;-64
2021/06/22 01:27:21;;;;;;;33.02;10.95;;;;;;;18.91;67.12;98159.27;2136052;83;21058;-65
2021/06/22 01:30:22;;;;;;;29.72;9.95;;;;;;;18.86;67.55;98161.55;2135805;83;21113;-66
2021/06/22 01:33:24;;;;;;;29.48;10.13;;;;;;;18.78;67.26;98162.36;2135739;83;21603;-64
2021/06/22 01:36:28;;;;;;;32.50;9.95;;;;;;;18.76;67.18;98158.20;2135786;83;21046;-65
2021/06/22 01:39:29;;;;;;;27.20;9.43;;;;;;;18.76;67.23;98158.20;2115566;83;21011;-66
2021/06/22 01:42:30;;;;;;;28.75;9.18;;;;;;;18.84;67.35;98155.06;2128671;84;21543;-64
2021/06/22 01:45:33;;;;;;;29.45;9.43;;;;;;;18.83;68.02;98158.73;2098269;84;21109;-66
2021/06/22 01:48:34;;;;;;;34.13;11.30;;;;;;;18.79;68.19;98152.56;2128600;84;21045;-64
2021/06/22 01:51:36;;;;;;;30.27;11.30;;;;;;;18.74;68.09;98153.56;2135771;83;21077;-66
2021/06/22 01:54:37;;;;;;;26.52;9.95;;;;;;;18.68;67.92;98149.72;2135751;83;21056;-65
2021/06/22 01:57:39;;;;;;;;;;;;;;;18.64;68.76;98152.36;2138031;83;21065;-63
2021/06/22 02:00:41;;;;;;;27.22;10.13;;;;;;;18.75;69.00;98148.08;2135708;83;20169;-65
2021/06/22 02:03:42;;;;;;;28.60;9.58;;;;;;;18.70;68.33;98148.58;2135763;83;21100;-64
2021/06/22 02:06:44;;;;;;;28.40;8.90;;;;;;;18.52;68.54;98148.67;2128594;83;20980;-66
2021/06/22 02:09:45;;;;;;;26.15;8.95;;;;;;;18.42;69.05;98149.30;2098267;83;21096;-64
2021/06/22 02:12:47;;;;;;;23.83;9.58;;;;;;;18.28;68.76;98147.26;2128293;84;21099;-65
2021/06/22 02:15:48;;;;;;;26.30;8.70;;;;;;;18.15;69.68;98147.69;2098271;85;21074;-64
2021/06/22 02:18:50;;;;;;;23.70;9.30;;;;;;;18.09;69.58;98138.55;2128560;83;21025;-65
2021/06/22 02:21:52;;;;;;;23.92;7.87;;;;;;;17.99;69.66;98124.56;2098152;84;21129;-64
2021/06/22 02:24:53;;;;;;;22.90;8.40;;;;;;;17.93;69.65;98139.29;2117333;82;21080;-65
2021/06/22 02:27:55;;;;;;;21.10;7.80;;;;;;;17.78;70.11;98151.42;2101723;84;20997;-65
2021/06/22 02:30:56;;;;;;;25.25;8.40;;;;;;;17.70;70.81;98148.23;2101645;85;21092;-66
2021/06/22 02:33:58;;;;;;;25.48;9.33;;;;;;;17.72;71.00;98149.41;2101662;85;20992;-64
2021/06/22 02:36:59;;;;;;;23.92;8.85;;;;;;;17.76;70.94;98146.28;2101693;84;21080;-64
2021/06/22 02:40:00;;;;;;;23.10;8.75;;;;;;;17.80;70.92;98151.62;2101552;85;21531;-65
2021/06/22 02:43:02;;;;;;;29.05;8.98;;;;;;;17.88;70.70;98158.78;2101792;85;21053;-64
2021/06/22 02:46:04;;;;;;;27.27;10.13;;;;;;;17.91;70.47;98167.78;2101679;84;20985;-63
2021/06/22 02:49:05;;;;;;;24.75;9.58;;;;;;;17.95;70.50;98170.97;2101673;85;21543;-66
2021/06/22 02:52:07;;;;;;;23.02;9.70;;;;;;;18.07;70.60;98174.18;2101630;85;21028;-66
2021/06/22 02:55:18;;;;;;;24.70;9.35;;;;;;;18.15;70.86;98175.56;2101708;84;21515;-63
2021/06/22 02:58:12;;;;;;;25.92;10.20;;;;;;;18.22;70.52;98174.44;2083825;85;21036;-64
2021/06/22 03:01:14;;;;;;;25.30;10.23;;;;;;;18.28;70.53;98181.25;2101848;85;21123;-66
2021/06/22 03:04:15;;;;;;;28.90;10.30;;;;;;;18.39;70.51;98178.83;2101768;85;21073;-66
2021/06/22 03:07:16;;;;;;;28.85;10.48;;;;;;;18.47;70.29;98175.38;2101683;85;21615;-64
2021/06/22 03:10:18;;;;;;;29.20;10.60;;;;;;;18.64;70.33;98175.77;2101825;84;21045;-65
2021/06/22 03:13:19;;;;;;;28.70;10.38;;;;;;;18.83;70.21;98177.81;2101741;85;21630;-66
2021/06/22 03:16:21;;;;;;;25.92;10.28;;;;;;;18.98;69.62;98178.06;2101978;85;21112;-64
2021/06/22 03:19:22;;;;;;;25.27;10.13;;;;;;;18.94;69.19;98181.53;2101798;85;21064;-66
2021/06/22 03:22:24;;;;;;;26.27;9.80;;;;;;;19.02;69.35;98180.22;2101797;85;21096;-66
2021/06/22 03:25:25;;;;;;;25.57;9.15;;;;;;;19.07;69.43;98166.44;2101744;82;21104;-65
2021/06/22 03:28:27;;;;;;;24.07;8.88;;;;;;;19.27;68.94;98171.45;2101393;85;21535;-65
2021/06/22 03:31:28;;;;;;;28.50;10.10;;;;;;;19.39;68.44;98170.11;2101608;85;20969;-66
2021/06/22 03:34:30;;;;;;;31.23;11.95;;;;;;;19.50;68.48;98175.61;2101663;85;21530;-65
2021/06/22 03:37:31;;;;;;;28.75;10.98;;;;;;;19.62;68.29;98172.93;2101377;85;21005;-64
2021/06/22 03:40:33;;;;;;;32.28;12.70;;;;;;;19.72;68.13;98170.10;2101649;85;21033;-65
2021/06/22 03:43:34;;;;;;;30.60;10.88;;;;;;;19.81;68.28;98173.61;2101695;85;20985;-64
2021/06/22 03:46:36;;;;;;;27.65;11.08;;;;;;;19.99;68.63;98175.58;2101650;85;21449;-63
2021/06/22 03:49:38;;;;;;;28.73;9.65;;;;;;;20.26;68.17;98184.17;2101563;85;21063;-63
2021/06/22 03:52:39;;;;;;;27.77;10.00;;;;;;;20.49;67.63;98176.27;2101685;85;21072;-66
2021/06/22 03:55:41;;;;;;;25.88;9.50;;;;;;;20.74;67.56;98180.98;2101768;85;21053;-64
2021/06/22 03:58:43;;;;;;;;;;;;;;;21.17;67.25;98186.42;2103989;85;21591;-64
2021/06/22 04:01:44;;;;;;;26.53;9.27;;;;;;;21.47;66.74;98191.37;2101892;85;20183;-64
2021/06/22 04:04:46;;;;;;;27.27;9.30;;;;;;;21.51;66.66;98186.03;2101792;85;21619;-65
2021/06/22 04:07:47;;;;;;;25.37;9.33;;;;;;;21.59;67.00;98183.80;2101891;85;21057;-64
2021/06/22 04:10:48;;;;;;;29.60;9.45;;;;;;;21.80;67.41;98185.78;2101776;85;21055;-65
2021/06/22 04:13:50;;;;;;;26.70;10.53;;;;;;;22.17;67.42;98201.93;2101717;85;21654;-63
2021/06/22 04:16:51;;;;;;;26.20;9.13;;;;;;;22.70;66.98;98204.03;2101792;85;21060;-63
2021/06/22 04:19:53;;;;;;;29.27;9.80;;;;;;;23.15;66.22;98204.77;2101757;85;21063;-64
2021/06/22 04:22:54;;;;;;;25.23;9.48;;;;;;;23.49;65.48;98206.47;2101971;85;21100;-64
2021/06/22 04:25:55;;;;;;;27.25;9.03;;;;;;;23.65;64.96;98199.49;2101691;83;21088;-63
2021/06/22 04:28:58;;;;;;;31.33;9.65;;;;;;;23.89;64.71;98195.27;2101311;85;21575;-64
2021/06/22 04:31:59;;;;;;;29.25;9.05;;;;;;;24.09;64.26;98202.93;2101474;85;21054;-64
2021/06/22 04:35:01;;;;;;;26.23;9.50;;;;;;;24.39;63.76;98199.53;2101739;85;21100;-65
2021/06/22 04:38:02;;;;;;;;;;;;;;;24.56;63.33;98198.67;2104157;85;20988;-64
2021/06/22 04:41:04;;;;;;;29.92;10.05;;;;;;;24.70;62.92;98198.25;2101851;84;20147;-65
2021/06/22 04:44:06;;;;;;;25.77;8.70;;;;;;;24.84;62.72;98200.98;2101773;85;20996;-64
2021/06/22 04:47:07;;;;;;;29.12;8.98;;;;;;;25.12;62.24;98201.39;2101745;85;21011;-64
2021/06/22 04:50:09;;;;;;;25.75;8.70;;;;;;;25.31;61.44;98205.14;2101776;85;21064;-64
2021/06/22 04:53:10;;;;;;;;;;;;;;;25.44;61.08;98201.69;2104096;85;21087;-64
2021/06/22 04:56:13;;;;;;;25.60;8.80;;;;;;;25.62;60.75;98207.28;2101755;85;20126;-64
2021/06/22 04:59:16;;;;;;;25.55;9.00;;;;;;;25.80;59.90;98205.83;2101255;85;21060;-64
2021/06/22 05:02:17;;;;;;;29.92;9.53;;;;;;;25.93;60.09;98205.32;2101640;85;21076;-64
2021/06/22 05:05:18;;;;;;;25.72;9.03;;;;;;;26.12;59.66;98204.20;2101715;85;21071;-64
2021/06/22 05:08:20;;;;;;;27.67;8.95;;;;;;;26.30;58.94;98211.59;2101759;85;21064;-65
2021/06/22 05:11:21;;;;;;;23.57;8.93;;;;;;;26.47;58.53;98216.53;2101707;85;21106;-64
2021/06/22 05:14:23;;;;;;;26.17;9.18;;;;;;;26.61;58.62;98220.30;2101817;85;21056;-65
2021/06/22 05:20:28;;;;;;;31.82;8.83;;;;;;;26.94;57.55;98226.63;2074089;85;21107;-65
2021/06/22 05:23:29;;;;;;;27.70;9.08;;;;;;;27.08;57.60;98212.58;2101867;85;21603;-65
2021/06/22 05:26:31;;;;;;;25.25;8.63;;;;;;;27.28;56.78;98210.61;2115146;83;21121;-65
2021/06/22 05:29:33;;;;;;;24.75;8.53;;;;;;;27.44;56.37;98205.75;2121895;84;21521;-65
2021/06/22 05:32:35;;;;;;;26.85;8.13;;;;;;;27.48;55.81;98200.24;2121763;83;21017;-66
2021/06/22 05:35:36;;;;;;;24.67;8.73;;;;;;;27.65;55.75;98206.73;2121836;84;21013;-66
2021/06/22 05:38:38;;;;;;;23.65;8.00;;;;;;;27.77;55.18;98206.03;2121953;84;21038;-65
2021/06/22 05:41:39;;;;;;;;;;;;;;;27.93;54.22;98210.87;2124311;84;21533;-65
2021/06/22 05:44:41;;;;;;;23.60;8.65;;;;;;;28.01;54.44;98213.84;2122058;84;20134;-65
2021/06/22 05:47:42;;;;;;;;;;;;;;;28.21;54.49;98216.34;2124326;84;21049;-65
2021/06/22 05:50:43;;;;;;;22.50;8.35;;;;;;;28.42;53.76;98215.63;2122068;83;20162;-65
2021/06/22 05:53:45;;;;;;;23.38;7.65;;;;;;;28.64;54.02;98214.14;2121828;84;21097;-65
2021/06/22 05:56:47;;;;;;;;;;;;;;;28.72;52.79;98212.19;2124357;84;21517;-66
2021/06/22 05:59:48;;;;;;;;;;;;;;;28.84;52.70;98208.50;2124322;84;20524;-66
2021/06/22 06:02:50;;;;;;;23.25;8.08;;;;;;;28.91;51.53;98214.36;2121889;84;20168;-66
2021/06/22 06:05:51;;;;;;;27.25;8.53;;;;;;;28.95;51.99;98213.67;2121762;84;21010;-65
2021/06/22 06:08:53;;;;;;;;;;;;;;;29.24;51.59;98203.14;2124343;83;21548;-66
2021/06/22 06:11:54;;;;;;;24.18;7.53;;;;;;;29.40;50.71;98200.30;2121873;84;20137;-66
2021/06/22 06:14:56;;;;;;;20.43;7.70;;;;;;;29.63;50.78;98199.52;2121702;84;21030;-66
2021/06/22 06:17:57;;;;;;;;;;;;;;;29.87;50.20;98203.66;2124331;84;21033;-67
2021/06/22 06:20:59;;;;;;;22.20;7.62;;;;;;;30.08;49.75;98203.58;2121764;83;20146;-65
2021/06/22 06:24:01;;;;;;;;;;;;;;;30.18;49.39;98207.05;2124320;84;21023;-65
2021/06/22 06:30:06;;;;;;;22.07;7.08;;;;;;;30.41;49.31;98213.80;2160755;82;21012;-66
2021/06/22 06:33:09;;;;;;;23.38;7.08;;;;;;;30.70;48.71;98214.41;2160854;82;21006;-66
2021/06/22 06:36:10;;;;;;;26.15;7.53;;;;;;;30.81;48.37;98215.45;2160939;82;21616;-65
2021/06/22 06:39:12;;;;;;;24.37;7.97;;;;;;;31.06;47.67;98218.69;2160901;82;21627;-66
2021/06/22 06:42:13;;;;;;;22.55;6.92;;;;;;;31.27;47.31;98210.94;2160885;82;21060;-66
2021/06/22 06:45:16;;;;;;;22.87;7.17;;;;;;;31.37;46.37;98208.41;2160926;82;21128;-66
2021/06/22 06:48:18;;;;;;;23.35;7.67;;;;;;;31.57;46.44;98207.16;2160818;82;21160;-66
2021/06/22 06:51:20;;;;;;;21.23;6.53;;;;;;;31.60;45.67;98212.08;2160749;82;21040;-66
2021/06/22 06:54:23;;;;;;;21.17;7.10;;;;;;;31.74;45.71;98220.17;2160764;82;21052;-66
2021/06/22 06:57:24;;;;;;;25.97;7.17;;;;;;;31.95;45.19;98215.06;2160807;82;21058;-67
2021/06/22 07:00:26;;;;;;;24.50;7.50;;;;;;;32.15;45.07;98224.62;2160772;82;21023;-66
2021/06/22 07:03:27;;;;;;;21.70;7.22;;;;;;;32.27;44.08;98228.88;2160802;82;21000;-66
2021/06/22 07:06:29;;;;;;;22.55;7.60;;;;;;;32.35;43.87;98228.16;2160759;82;21017;-66
2021/06/22 07:09:30;;;;;;;21.93;7.50;;;;;;;32.25;44.34;98235.09;2160743;82;21626;-66
2021/06/22 07:12:32;;;;;;;23.85;7.42;;;;;;;32.44;43.30;98238.86;2160678;82;21040;-66
2021/06/22 07:15:34;;;;;;;19.45;6.62;;;;;;;32.57;43.97;98248.02;2160378;82;21582;-66
2021/06/22 07:18:35;;;;;;;21.40;6.85;;;;;;;32.83;43.11;98248.37;2160890;82;21040;-66
2021/06/22 07:21:37;;;;;;;23.70;7.22;;;;;;;32.93;41.55;98255.28;2160722;82;21072;-66
2021/06/22 07:24:38;;;;;;;20.02;7.87;;;;;;;32.94;43.11;98255.57;2160748;82;21590;-67
2021/06/22 07:27:40;;;;;;;23.40;7.30;;;;;;;33.12;41.01;98253.59;2159980;81;21071;-68
2021/06/22 07:30:42;;;;;;;25.65;8.50;;;;;;;32.75;41.60;98244.19;2160553;82;21020;-68
2021/06/22 07:33:44;;;;;;;24.00;8.33;;;;;;;32.30;41.07;98240.58;2160036;81;20960;-67
2021/06/22 07:36:45;;;;;;;23.52;8.45;;;;;;;31.85;42.21;98237.95;2160816;82;21500;-69
2021/06/22 07:39:47;;;;;;;22.48;8.33;;;;;;;31.70;42.81;98240.70;2160631;82;21497;-71
2021/06/22 07:42:51;;;;;;;19.00;7.17;;;;;;;32.17;42.33;98241.45;2132243;82;21055;-68
2021/06/22 07:45:53;;;;;;;19.73;7.08;;;;;;;32.53;41.59;98248.77;2160655;82;21477;-68
2021/06/22 07:48:54;;;;;;;23.60;7.45;;;;;;;32.87;42.39;98263.09;2159940;82;21052;-66
2021/06/22 07:51:56;;;;;;;22.90;7.15;;;;;;;33.11;42.22;98266.88;2159752;82;21488;-65
2021/06/22 07:54:58;;;;;;;22.98;6.70;;;;;;;33.57;42.18;98265.22;2160085;82;21483;-66
2021/06/22 07:57:59;;;;;;;20.82;6.90;;;;;;;33.92;41.84;98267.47;2160202;82;21494;-66
2021/06/22 08:01:01;;;;;;;22.95;6.90;;;;;;;34.19;39.87;98257.88;2159897;82;20984;-66
2021/06/22 08:04:04;;;;;;;21.17;7.05;;;;;;;34.23;39.84;98262.23;2176218;81;21016;-67
2021/06/22 08:07:06;;;;;;;23.07;7.08;;;;;;;34.40;39.87;98262.66;2186455;81;21088;-66
2021/06/22 08:10:07;;;;;;;20.00;6.55;;;;;;;34.09;39.14;98265.94;2186088;81;21100;-67
2021/06/22 08:13:09;;;;;;;20.40;6.47;;;;;;;33.88;38.81;98270.42;2186428;81;21022;-68
2021/06/22 08:16:11;;;;;;;19.92;6.62;;;;;;;33.27;40.20;98275.50;2186416;81;21021;-66
2021/06/22 08:19:13;;;;;;;21.42;7.70;;;;;;;33.36;40.64;98270.98;2186175;81;21017;-66
2021/06/22 08:22:14;;;;;;;21.80;6.75;;;;;;;33.70;40.33;98269.41;2186471;81;20970;-66
2021/06/22 08:25:16;;;;;;;22.30;7.10;;;;;;;33.91;39.58;98276.70;2185229;81;21016;-67
2021/06/22 08:28:17;;;;;;;20.52;6.55;;;;;;;34.17;39.55;98285.86;2124120;81;21067;-67
2021/06/22 08:31:20;;;;;;;21.02;6.42;;;;;;;34.48;39.77;98288.00;2122889;84;21040;-67
2021/06/22 08:34:22;;;;;;;20.90;6.40;;;;;;;34.60;39.13;98280.45;2122967;84;20977;-68
2021/06/22 08:37:23;;;;;;;20.90;6.25;;;;;;;34.57;38.67;98280.16;2122996;84;21000;-67
2021/06/22 08:40:24;;;;;;;18.77;6.22;;;;;;;34.68;38.11;98281.84;2123112;84;21072;-67
2021/06/22 08:43:26;;;;;;;21.40;6.20;;;;;;;34.78;38.58;98278.36;2123117;84;21099;-67
2021/06/22 08:46:27;;;;;;;20.08;6.25;;;;;;;35.07;38.23;98285.61;2122426;84;20965;-67
2021/06/22 08:49:29;;;;;;;17.52;5.67;;;;;;;35.24;36.19;98281.83;2122010;84;21526;-67
2021/06/22 08:52:32;;;;;;;21.05;5.53;;;;;;;35.30;37.59;98276.69;2121883;84;21509;-67
2021/06/22 08:55:33;;;;;;;17.67;5.53;;;;;;;35.62;37.02;98274.32;2123126;84;21045;-67
2021/06/22 08:58:35;;;;;;;19.35;5.30;;;;;;;35.95;36.70;98271.63;2123350;84;21079;-67
2021/06/22 09:01:37;;;;;;;20.25;5.78;;;;;;;36.17;35.11;98261.77;2123089;84;21044;-67
2021/06/22 09:04:38;;;;;;;23.12;5.85;;;;;;;36.35;35.37;98262.31;2123009;84;21044;-67
2021/06/22 09:07:40;;;;;;;17.20;5.10;;;;;;;36.36;33.92;98249.78;2123089;84;21614;-68
2021/06/22 09:10:41;;;;;;;20.77;5.10;;;;;;;36.29;32.36;98251.95;2123174;84;21049;-68
2021/06/22 09:13:44;;;;;;;20.45;5.15;;;;;;;36.08;34.74;98249.80;2123207;84;21072;-68
2021/06/22 09:16:46;;;;;;;18.50;4.75;;;;;;;36.24;33.86;98254.67;2123230;84;21097;-68
2021/06/22 09:19:47;;;;;;;20.20;5.42;;;;;;;36.50;33.21;98260.92;2123241;84;21040;-68
2021/06/22 09:22:49;;;;;;;18.50;5.62;;;;;;;36.72;33.60;98266.59;2123072;84;21019;-68
2021/06/22 09:25:51;;;;;;;18.65;5.42;;;;;;;36.99;32.76;98268.96;2123005;82;21072;-68
2021/06/22 09:28:53;;;;;;;17.98;5.35;;;;;;;37.21;32.93;98275.42;2123207;84;21056;-68
2021/06/22 09:31:54;;;;;;;19.32;5.47;;;;;;;37.19;32.49;98280.34;2123179;84;21037;-68
2021/06/22 09:34:56;;;;;;;20.82;5.35;;;;;;;37.23;32.33;98279.24;2123056;84;21008;-68
2021/06/22 09:37:58;;;;;;;20.65;5.35;;;;;;;37.25;32.41;98283.34;2122755;84;21546;-68
2021/06/22 09:41:00;;;;;;;22.45;5.50;;;;;;;37.39;32.13;98280.80;2123162;84;21051;-68
2021/06/22 09:44:01;;;;;;;22.50;5.62;;;;;;;37.59;31.64;98274.38;2123056;84;21028;-68
2021/06/22 09:47:05;;;;;;;15.90;5.15;;;;;;;37.81;31.13;98266.88;2123071;84;21032;-68
2021/06/22 09:50:06;;;;;;;20.40;5.90;;;;;;;37.99;31.46;98262.60;2123141;84;21052;-68
2021/06/22 09:53:08;;;;;;;23.10;5.47;;;;;;;37.97;31.09;98265.63;2123220;84;21069;-68
2021/06/22 09:56:10;;;;;;;19.73;5.37;;;;;;;38.09;30.76;98255.69;2123198;84;21064;-68
2021/06/22 10:02:15;;;;;;;18.70;5.58;;;;;;;38.08;30.52;98260.89;2097119;84;21506;-69
2021/06/22 10:05:17;;;;;;;17.73;5.78;;;;;;;38.06;30.69;98254.34;2123248;84;21060;-69
2021/06/22 10:08:18;;;;;;;20.88;5.37;;;;;;;38.14;31.10;98261.09;2123061;84;20953;-68
2021/06/22 10:11:20;;;;;;;19.75;5.70;;;;;;;37.99;30.43;98247.55;2123144;84;21060;-68
2021/06/22 10:14:21;;;;;;;17.12;5.42;;;;;;;37.90;30.58;98244.09;2123029;84;21036;-68
2021/06/22 10:17:24;;;;;;;21.15;5.53;;;;;;;37.84;31.05;98238.38;2123018;84;21539;-68
2021/06/22 10:20:26;;;;;;;18.32;5.22;;;;;;;37.83;30.26;98235.39;2123154;84;21057;-68
2021/06/22 10:23:27;;;;;;;16.57;5.20;;;;;;;37.67;30.38;98240.69;2123146;84;20985;-68
2021/06/22 10:26:29;;;;;;;19.40;4.97;;;;;;;37.67;30.66;98243.42;2122902;82;21093;-68
2021/06/22 10:29:31;;;;;;;18.87;5.40;;;;;;;37.70;30.25;98249.68;2123032;84;21000;-68
2021/06/22 10:32:34;;;;;;;20.32;5.10;;;;;;;37.53;29.91;98246.81;2122941;84;21044;-68
2021/06/22 10:35:35;;;;;;;17.95;4.72;;;;;;;37.39;29.95;98241.72;2123166;84;21092;-68
2021/06/22 10:38:37;;;;;;;20.60;4.95;;;;;;;37.19;30.60;98246.17;2122692;84;21068;-67
2021/06/22 10:41:39;;;;;;;18.55;4.78;;;;;;;36.91;30.50;98243.61;2123048;84;20993;-68
2021/06/22 10:44:42;;;;;;;23.70;5.65;;;;;;;36.68;30.49;98225.90;2123018;84;20992;-67
2021/06/22 10:47:43;;;;;;;19.80;5.15;;;;;;;36.51;30.74;98235.81;2123111;84;21037;-67
2021/06/22 10:50:45;;;;;;;21.42;4.80;;;;;;;36.33;30.99;98242.13;2123001;84;21000;-67
2021/06/22 10:53:47;;;;;;;16.40;4.90;;;;;;;36.10;30.99;98249.52;2122668;84;21519;-68
2021/06/22 10:56:49;;;;;;;17.48;4.50;;;;;;;35.82;31.48;98251.17;2123022;84;20957;-67
2021/06/22 10:59:50;;;;;;;16.42;4.90;;;;;;;35.76;31.43;98253.60;2122997;84;21060;-67
2021/06/22 11:02:52;;;;;;;24.85;5.10;;;;;;;35.68;31.42;98256.86;2122953;84;20997;-67
2021/06/22 11:05:53;;;;;;;19.02;5.42;;;;;;;35.59;31.66;98256.59;2123001;84;20997;-68
2021/06/22 11:08:55;;;;;;;20.32;5.30;;;;;;;35.56;31.82;98257.13;2123090;84;21547;-67
2021/06/22 11:11:57;;;;;;;23.73;5.42;;;;;;;35.64;31.62;98253.84;2123124;84;20973;-67
2021/06/22 11:14:58;;;;;;;22.50;5.00;;;;;;;35.64;32.20;98250.31;2122993;84;21562;-67
2021/06/22 11:18:00;;;;;;;17.23;5.00;;;;;;;35.73;32.45;98244.58;2123017;84;21016;-67
2021/06/22 11:21:02;;;;;;;22.10;5.00;;;;;;;36.06;32.24;98241.05;2122892;84;21551;-67
2021/06/22 11:24:04;;;;;;;19.32;5.10;;;;;;;36.58;32.04;98237.70;2122795;84;21012;-67
2021/06/22 11:27:06;;;;;;;16.95;4.80;;;;;;;37.07;31.40;98239.69;2123109;82;21020;-68
2021/06/22 11:30:08;;;;;;;20.92;5.22;;;;;;;37.41;31.12;98233.50;2122933;84;20996;-67
2021/06/22 11:33:10;;;;;;;17.45;5.30;;;;;;;38.07;30.88;98231.88;2122941;84;21071;-68
2021/06/22 11:36:11;;;;;;;18.52;5.10;;;;;;;38.74;30.45;98224.36;2122702;84;21590;-67
2021/06/22 11:39:15;;;;;;;16.70;4.95;;;;;;;39.03;29.18;98230.28;2123024;84;21036;-68
2021/06/22 11:42:16;;;;;;;22.05;5.40;;;;;;;39.35;29.51;98215.84;2097424;84;21092;-68
2021/06/22 11:45:18;;;;;;;18.90;5.03;;;;;;;39.59;27.15;98214.97;2122990;84;21029;-68
2021/06/22 11:48:19;;;;;;;19.60;4.90;;;;;;;39.40;27.34;98213.60;2122838;84;21056;-68
2021/06/22 11:51:21;;;;;;;18.87;5.40;;;;;;;39.12;28.27;98218.90;2122964;84;21518;-68
2021/06/22 11:54:22;;;;;;;17.40;5.20;;;;;;;39.23;28.97;98212.19;2123095;84;21012;-68
2021/06/22 11:57:26;;;;;;;17.95;5.15;;;;;;;39.55;27.53;98218.81;2123005;84;20997;-67
2021/06/22 12:00:28;;;;;;;16.73;4.80;;;;;;;39.83;28.10;98221.70;2123085;84;21008;-68
2021/06/22 12:03:30;;;;;;;17.30;5.12;;;;;;;40.31;27.33;98215.08;2123320;84;21076;-68
2021/06/22 12:06:32;;;;;;;17.67;4.95;;;;;;;40.54;26.35;98209.16;2123239;84;20996;-68
2021/06/22 12:09:33;;;;;;;17.00;5.20;;;;;;;40.40;26.23;98205.00;2123104;84;21000;-69
2021/06/22 12:12:34;;;;;;;17.40;4.75;;;;;;;40.31;26.14;98206.84;2123118;84;21538;-68
2021/06/22 12:15:36;;;;;;;16.37;4.45;;;;;;;40.09;25.22;98196.56;2123248;84;21084;-69
2021/06/22 12:18:37;;;;;;;17.73;4.97;;;;;;;39.95;26.28;98193.77;2123284;84;21056;-68
2021/06/22 12:21:40;;;;;;;18.25;5.45;;;;;;;39.87;25.77;98193.91;2123255;84;21057;-69
2021/06/22 12:24:41;;;;;;;19.42;5.17;;;;;;;39.90;26.12;98194.67;2123135;84;21002;-68
2021/06/22 12:27:43;;;;;;;21.50;5.33;;;;;;;39.84;25.00;98201.34;2122854;82;21076;-69
2021/06/22 12:30:45;;;;;;;20.57;5.50;;;;;;;39.73;25.91;98214.45;2123264;84;21072;-68
2021/06/22 12:33:46;;;;;;;17.65;5.30;;;;;;;39.04;25.81;98222.33;2123089;84;20992;-68
2021/06/22 12:36:48;;;;;;;20.62;5.47;;;;;;;38.97;26.29;98211.16;2123150;84;21557;-68
2021/06/22 12:39:49;;;;;;;17.32;5.20;;;;;;;39.36;26.96;98212.00;2123248;84;21044;-69
2021/06/22 12:42:51;;;;;;;19.67;5.67;;;;;;;39.65;27.09;98221.45;2122917;84;21032;-68
2021/06/22 12:45:53;;;;;;;24.37;6.53;;;;;;;39.70;25.71;98222.45;2123156;84;21032;-68
2021/06/22 12:48:55;;;;;;;19.57;5.85;;;;;;;39.25;27.71;98225.59;2123160;84;21003;-68
2021/06/22 12:51:58;;;;;;;20.75;6.42;;;;;;;39.28;29.12;98220.35;2123126;84;21036;-68
2021/06/22 12:54:59;;;;;;;21.12;6.83;;;;;;;39.66;28.30;98211.28;2123247;84;21103;-68
2021/06/22 12:58:01;;;;;;;21.87;7.08;;;;;;;39.75;28.41;98207.29;2123138;84;20996;-68
2021/06/22 13:01:03;;;;;;;19.10;6.85;;;;;;;39.87;27.86;98214.50;2123115;84;21004;-68
2021/06/22 13:04:04;;;;;;;19.48;6.55;;;;;;;39.80;28.67;98202.53;2123140;84;20988;-68
2021/06/22 13:07:06;;;;;;;20.55;6.75;;;;;;;39.96;27.52;98192.09;2123063;84;21203;-68
2021/06/22 13:10:07;;;;;;;22.55;6.78;;;;;;;39.77;28.19;98200.92;2123097;84;20976;-66
2021/06/22 13:13:09;;;;;;;18.00;6.45;;;;;;;39.74;28.37;98198.25;2123221;84;21016;-66
2021/06/22 13:16:10;;;;;;;24.57;6.87;;;;;;;39.76;28.62;98200.13;2123123;84;21035;-66
2021/06/22 13:19:12;;;;;;;19.02;6.65;;;;;;;39.75;28.22;98201.80;2123092;84;21064;-66
2021/06/22 13:22:14;;;;;;;18.70;6.10;;;;;;;39.86;28.20;98196.39;2123207;84;21064;-67
2021/06/22 13:25:16;;;;;;;19.75;5.97;;;;;;;39.72;27.42;98202.41;2123352;84;21095;-66
2021/06/22 13:28:18;;;;;;;17.57;4.95;;;;;;;39.48;27.32;98203.30;2123157;82;21120;-67
2021/06/22 13:31:20;;;;;;;20.68;5.92;;;;;;;39.59;27.57;98199.88;2123063;84;21059;-67
2021/06/22 13:34:21;;;;;;;18.70;6.50;;;;;;;39.76;27.48;98215.78;2123063;84;21033;-66
2021/06/22 13:37:23;;;;;;;19.07;6.40;;;;;;;39.76;26.96;98211.67;2123025;84;21012;-67
2021/06/22 13:40:24;;;;;;;18.90;6.17;;;;;;;39.41;27.45;98213.84;2122762;84;21005;-66
2021/06/22 13:43:25;;;;;;;18.92;6.45;;;;;;;39.11;28.05;98226.32;2123037;84;21004;-66
2021/06/22 13:46:28;;;;;;;21.42;6.20;;;;;;;39.15;28.62;98227.93;2123081;84;21027;-67
2021/06/22 13:49:30;;;;;;;21.80;7.10;;;;;;;39.32;28.46;98221.39;2123201;84;21043;-66
2021/06/22 13:52:31;;;;;;;18.73;6.65;;;;;;;39.53;28.78;98226.55;2122981;84;21000;-66
2021/06/22 13:58:35;;;;;;;18.57;5.72;;;;;;;39.89;28.48;98228.72;2123063;84;21008;-66
2021/06/22 14:01:36;;;;;;;18.35;5.80;;;;;;;39.98;27.80;98223.34;2122924;84;21555;-66
2021/06/22 14:04:37;;;;;;;17.80;5.70;;;;;;;39.99;27.60;98224.41;2123014;84;21032;-65
2021/06/22 14:07:39;;;;;;;20.37;5.50;;;;;;;40.06;27.12;98223.23;2123079;84;20984;-66
2021/06/22 14:10:40;;;;;;;20.52;6.12;;;;;;;40.19;27.05;98226.57;2123223;84;21060;-66
2021/06/22 14:13:42;;;;;;;18.00;6.45;;;;;;;40.22;27.07;98229.28;2123018;84;21000;-66
2021/06/22 14:16:43;;;;;;;17.95;6.35;;;;;;;40.29;27.52;98222.82;2123053;84;21003;-66
2021/06/22 14:19:45;;;;;;;17.50;6.15;;;;;;;40.26;26.71;98227.52;2123035;84;20984;-66